Time;durP1;ratioP1;P1;durP2;ratioP2;P2;SDS_P1;SDS_P2;PMS_P1;PMS_P2;Temp;Humidity;BMP_temperature;BMP_pressure;BME280_temperature;BME280_humidity;BME280_pressure;Samples;Min_cycle;Max_cycle;Signal;HPM_P1;HPM_P2
2020/12/06 00:00:46;;;;;;;11.93;4.78;;;;;;;-9.38;71.98;102403.39;1675714;84;21218;-60
2020/12/06 00:03:15;;;;;;;19.70;5.70;;;;;;;-9.40;72.23;102414.33;1672206;84;21162;-59
2020/12/06 00:05:43;;;;;;;10.68;4.42;;;;;;;-9.43;72.40;102405.49;1675007;84;21088;-59
2020/12/06 00:08:11;;;;;;;10.85;4.22;;;;;;;-9.46;72.58;102416.88;1674734;84;21040;-59
2020/12/06 00:10:39;;;;;;;11.38;4.55;;;;;;;-9.48;72.72;102408.03;1641040;85;21082;-59
2020/12/06 00:13:07;;;;;;;8.95;4.17;;;;;;;-9.51;72.69;102407.19;1675111;84;21242;-58
2020/12/06 00:15:36;;;;;;;9.38;4.20;;;;;;;-9.54;72.77;102404.27;1674259;85;21186;-59
2020/12/06 00:18:04;;;;;;;10.58;4.35;;;;;;;-9.59;72.95;102400.47;1675413;84;21209;-58
2020/12/06 00:20:32;;;;;;;11.68;3.98;;;;;;;-9.63;73.13;102393.74;1675011;84;21212;-60
2020/12/06 00:23:01;;;;;;;10.08;4.42;;;;;;;-9.67;73.32;102402.16;1674901;84;21086;-59
2020/12/06 00:25:29;;;;;;;12.13;4.67;;;;;;;-9.68;73.43;102400.91;1674079;84;21385;-59
2020/12/06 00:27:57;;;;;;;13.20;5.15;;;;;;;-9.72;73.67;102402.60;1675483;84;21196;-58
2020/12/06 00:30:25;;;;;;;12.13;4.78;;;;;;;-9.76;73.84;102398.40;1676138;84;21493;-57
2020/12/06 00:32:53;;;;;;;11.12;4.70;;;;;;;-9.77;74.07;102402.16;1676044;84;21179;-59
2020/12/06 00:35:23;;;;;;;9.35;3.95;;;;;;;-9.77;74.20;102400.52;1672895;84;21025;-59
2020/12/06 00:37:51;;;;;;;8.50;4.10;;;;;;;-9.78;74.41;102397.55;1675106;84;21217;-59
2020/12/06 00:40:19;;;;;;;8.98;3.72;;;;;;;-9.82;74.58;102400.48;1639326;85;21212;-59
2020/12/06 00:42:47;;;;;;;7.53;3.72;;;;;;;-9.85;74.67;102400.52;1674624;84;21175;-58
2020/12/06 00:45:16;;;;;;;7.42;3.40;;;;;;;-9.87;74.91;102397.56;1675589;84;21067;-59
2020/12/06 00:47:43;;;;;;;12.00;4.87;;;;;;;-9.89;75.12;102395.44;1674603;84;21088;-58
2020/12/06 00:50:12;;;;;;;14.93;4.97;;;;;;;-9.90;75.34;102396.30;1639754;85;21190;-60
2020/12/06 00:52:40;;;;;;;9.93;4.45;;;;;;;-9.93;75.48;102398.81;1675501;84;21182;-60
2020/12/06 00:55:09;;;;;;;12.15;3.58;;;;;;;-9.95;75.59;102397.56;1674929;84;20973;-58
2020/12/06 00:57:37;;;;;;;10.25;4.08;;;;;;;-9.98;75.73;102396.72;1676468;84;21110;-60
2020/12/06 01:00:09;;;;;;;12.37;4.65;;;;;;;-10.01;75.84;102394.19;1675030;84;21070;-56
2020/12/06 01:02:37;;;;;;;15.40;4.78;;;;;;;-10.03;76.04;102392.10;1673324;84;21226;-58
2020/12/06 01:05:07;;;;;;;11.65;5.03;;;;;;;-10.06;76.18;102392.93;1671839;85;20940;-59
2020/12/06 01:07:39;;;;;;;12.98;4.78;;;;;;;-10.09;76.35;102385.36;1642217;85;21109;-57
2020/12/06 01:10:09;;;;;;;8.73;4.12;;;;;;;-10.13;76.48;102387.45;1674917;84;21084;-56
2020/12/06 01:12:38;;;;;;;9.05;4.08;;;;;;;-10.14;76.67;102384.52;1674007;84;21001;-57
2020/12/06 01:15:08;;;;;;;10.35;4.95;;;;;;;-10.17;76.83;102396.70;1674883;84;21216;-57
2020/12/06 01:17:37;;;;;;;8.50;3.75;;;;;;;-10.19;77.06;102395.87;1675649;84;21126;-57
2020/12/06 01:20:06;;;;;;;11.60;4.28;;;;;;;-10.23;77.22;102388.28;1674033;84;21103;-58
2020/12/06 01:22:35;;;;;;;9.75;4.70;;;;;;;-10.25;77.44;102391.27;1676320;84;20957;-57
2020/12/06 01:25:05;;;;;;;11.53;5.08;;;;;;;-10.27;77.68;102399.23;1674329;84;21080;-59
2020/12/06 01:27:34;;;;;;;11.88;4.87;;;;;;;-10.30;77.83;102400.92;1676084;84;21354;-60
2020/12/06 01:30:04;;;;;;;8.68;4.08;;;;;;;-10.33;78.06;102397.13;1673352;84;21144;-57
2020/12/06 01:32:32;;;;;;;10.78;4.10;;;;;;;-10.34;78.30;102395.85;1675918;84;21135;-59
2020/12/06 01:35:02;;;;;;;10.45;4.55;;;;;;;-10.35;78.48;102399.22;1671689;84;21194;-59
2020/12/06 01:37:31;;;;;;;10.30;4.80;;;;;;;-10.38;78.59;102396.30;1676352;84;21138;-57
2020/12/06 01:39:59;;;;;;;10.82;4.60;;;;;;;-10.41;78.87;102391.67;1674122;84;21260;-59
2020/12/06 01:42:27;;;;;;;8.88;4.00;;;;;;;-10.43;79.22;102394.59;1639310;85;21102;-56
2020/12/06 01:44:59;;;;;;;10.88;4.60;;;;;;;-10.46;79.59;102397.94;1675475;84;21246;-58
2020/12/06 01:47:27;;;;;;;11.40;4.90;;;;;;;-10.46;79.92;102397.09;1675740;84;20940;-59
2020/12/06 01:49:56;;;;;;;11.05;4.20;;;;;;;-10.45;80.09;102398.80;1674583;84;21192;-57
2020/12/06 01:52:26;;;;;;;10.50;4.67;;;;;;;-10.48;80.21;102402.15;1674564;84;21160;-57
2020/12/06 01:54:54;;;;;;;10.45;4.55;;;;;;;-10.50;80.48;102400.03;1675019;84;21147;-57
2020/12/06 01:57:23;;;;;;;9.85;4.40;;;;;;;-10.51;80.80;102404.66;1675795;84;21198;-58
2020/12/06 01:59:51;;;;;;;13.25;4.58;;;;;;;-10.51;80.97;102396.25;1676107;84;21146;-57
2020/12/06 02:02:19;;;;;;;13.35;4.80;;;;;;;-10.53;81.16;102392.45;1672548;84;21156;-58
2020/12/06 02:04:47;;;;;;;11.90;5.20;;;;;;;-10.55;81.37;102387.42;1674737;84;21169;-59
2020/12/06 02:07:16;;;;;;;15.45;6.72;;;;;;;-10.55;81.62;102389.94;1673257;85;21103;-58
2020/12/06 02:09:44;;;;;;;16.00;6.85;;;;;;;-10.55;81.70;102388.68;1675805;84;20909;-57
2020/12/06 02:12:12;;;;;;;13.15;6.70;;;;;;;-10.56;81.90;102391.21;1675204;84;21151;-57
2020/12/06 02:14:41;;;;;;;10.72;5.85;;;;;;;-10.58;82.13;102388.67;1676798;84;21164;-59
2020/12/06 02:17:09;;;;;;;10.05;4.87;;;;;;;-10.58;82.27;102394.97;1673925;84;21214;-57
2020/12/06 02:19:39;;;;;;;11.57;5.20;;;;;;;-10.60;82.45;102394.14;1675032;84;21114;-58
2020/12/06 02:22:07;;;;;;;10.75;5.60;;;;;;;-10.63;82.62;102397.91;1675422;84;21064;-58
2020/12/06 02:24:36;;;;;;;9.50;4.12;;;;;;;-10.64;82.73;102389.93;1676236;84;21111;-57
2020/12/06 02:27:04;;;;;;;12.05;4.85;;;;;;;-10.64;82.99;102399.17;1671557;84;21095;-59
2020/12/06 02:29:32;;;;;;;10.72;4.87;;;;;;;-10.66;83.19;102399.15;1674997;84;21530;-58
2020/12/06 02:32:01;;;;;;;11.60;4.67;;;;;;;-10.68;83.34;102400.84;1675104;84;21157;-59
2020/12/06 02:34:29;;;;;;;10.50;4.85;;;;;;;-10.69;83.49;102396.61;1676284;84;21095;-58
2020/12/06 02:36:57;;;;;;;9.65;4.62;;;;;;;-10.71;83.61;102408.38;1675326;84;21143;-59
2020/12/06 02:39:25;;;;;;;10.63;4.67;;;;;;;-10.72;83.89;102395.76;1675868;84;21094;-58
2020/12/06 02:41:54;;;;;;;11.73;5.08;;;;;;;-10.74;83.96;102404.59;1674756;84;21836;-58
2020/12/06 02:44:22;;;;;;;13.83;4.35;;;;;;;-10.72;84.13;102405.84;1673729;84;21206;-59
2020/12/06 02:46:50;;;;;;;11.43;5.75;;;;;;;-10.75;84.30;102397.88;1673328;84;21105;-59
2020/12/06 02:49:18;;;;;;;12.88;4.97;;;;;;;-10.76;84.52;102402.47;1675956;84;21249;-58
2020/12/06 02:51:46;;;;;;;13.03;5.17;;;;;;;-10.77;84.68;102408.34;1675758;84;21235;-60
2020/12/06 02:54:14;;;;;;;10.70;5.22;;;;;;;-10.80;84.73;102403.30;1641098;85;21159;-58
2020/12/06 02:56:43;;;;;;;13.65;5.12;;;;;;;-10.82;84.93;102407.50;1676071;84;21150;-58
2020/12/06 02:59:11;;;;;;;9.15;4.95;;;;;;;-10.84;84.97;102408.73;1673693;84;21044;-59
2020/12/06 03:01:39;;;;;;;10.90;4.87;;;;;;;-10.88;85.27;102406.20;1676231;84;21095;-58
2020/12/06 03:04:07;;;;;;;15.83;4.83;;;;;;;-10.90;85.43;102403.69;1670922;84;21075;-58
2020/12/06 03:06:35;;;;;;;12.07;4.72;;;;;;;-10.91;85.63;102396.11;1675601;84;21228;-60
2020/12/06 03:09:04;;;;;;;10.35;4.80;;;;;;;-10.93;85.78;102400.32;1674388;84;21103;-58
2020/12/06 03:11:32;;;;;;;10.08;4.70;;;;;;;-10.96;86.03;102401.14;1676109;84;21198;-60
2020/12/06 03:14:00;;;;;;;10.65;4.90;;;;;;;-10.97;86.25;102396.11;1673888;84;21000;-59
2020/12/06 03:16:28;;;;;;;11.05;4.67;;;;;;;-10.97;86.44;102401.98;1675004;84;21035;-58
2020/12/06 03:18:57;;;;;;;12.10;4.80;;;;;;;-11.00;86.71;102403.22;1673437;84;21329;-61
2020/12/06 03:21:25;;;;;;;13.98;5.03;;;;;;;-11.00;86.90;102406.16;1676732;84;20983;-58
2020/12/06 03:23:53;;;;;;;11.70;5.62;;;;;;;-11.01;87.20;102407.84;1674424;84;21087;-57
2020/12/06 03:26:21;;;;;;;12.75;4.95;;;;;;;-11.01;87.41;102413.30;1676059;84;21188;-57
2020/12/06 03:28:49;;;;;;;10.30;4.97;;;;;;;-11.02;87.67;102408.69;1674597;84;21103;-59
2020/12/06 03:31:17;;;;;;;12.50;5.05;;;;;;;-11.03;87.74;102408.23;1674749;84;21396;-57
2020/12/06 03:33:45;;;;;;;14.98;6.72;;;;;;;-11.03;87.94;102420.41;1673518;84;21143;-57
2020/12/06 03:36:13;;;;;;;9.65;4.58;;;;;;;-11.04;88.13;102404.05;1676028;84;21139;-59
2020/12/06 03:38:41;;;;;;;13.08;5.42;;;;;;;-11.06;88.34;102412.86;1674496;84;21151;-59
2020/12/06 03:41:11;;;;;;;12.80;5.85;;;;;;;-11.05;88.60;102418.31;1675766;84;21155;-59
2020/12/06 03:43:39;;;;;;;12.45;4.97;;;;;;;-11.05;88.74;102419.58;1676672;84;21375;-59
2020/12/06 03:46:07;;;;;;;12.53;5.47;;;;;;;-11.05;88.92;102414.54;1639748;85;21217;-59
2020/12/06 03:48:36;;;;;;;12.60;5.00;;;;;;;-11.05;89.03;102417.48;1674930;84;21118;-57
2020/12/06 03:51:04;;;;;;;14.35;5.97;;;;;;;-11.07;89.09;102411.16;1673472;84;21233;-59
2020/12/06 03:53:33;;;;;;;11.28;5.05;;;;;;;-11.07;89.15;102417.88;1676857;84;21130;-57
2020/12/06 03:56:01;;;;;;;10.45;4.80;;;;;;;-11.08;89.32;102418.30;1672963;85;21223;-59
2020/12/06 03:58:29;;;;;;;17.95;5.28;;;;;;;-11.09;89.52;102419.14;1676167;84;21233;-57
2020/12/06 04:00:59;;;;;;;10.13;4.80;;;;;;;-11.10;89.55;102417.46;1670592;84;21040;-57
2020/12/06 04:03:28;;;;;;;12.53;4.25;;;;;;;-11.10;89.72;102417.85;1639122;85;21248;-59
2020/12/06 04:05:56;;;;;;;10.82;4.90;;;;;;;-11.13;90.00;102418.70;1670637;84;21147;-57
2020/12/06 04:08:25;;;;;;;10.60;5.10;;;;;;;-11.13;90.33;102416.18;1675978;84;21211;-57
2020/12/06 04:10:53;;;;;;;12.65;4.87;;;;;;;-11.13;90.57;102417.44;1675238;84;21143;-57
2020/12/06 04:13:21;;;;;;;11.20;4.47;;;;;;;-11.13;90.82;102419.95;1675976;84;21103;-59
2020/12/06 04:15:50;;;;;;;11.97;6.50;;;;;;;-11.13;91.09;102412.41;1674951;84;21154;-59
2020/12/06 04:18:18;;;;;;;12.95;5.80;;;;;;;-11.14;91.27;102416.16;1676226;84;21128;-59
2020/12/06 04:20:46;;;;;;;10.25;5.00;;;;;;;-11.15;91.59;102419.09;1675298;84;21256;-59
2020/12/06 04:23:14;;;;;;;8.45;4.62;;;;;;;-11.16;91.75;102412.38;1674626;84;21016;-59
2020/12/06 04:25:42;;;;;;;17.50;6.95;;;;;;;-11.16;92.12;102420.36;1675187;84;21210;-57
2020/12/06 04:28:11;;;;;;;20.20;7.17;;;;;;;-11.14;92.38;102421.19;1676025;84;21203;-59
2020/12/06 04:30:39;;;;;;;20.32;6.67;;;;;;;-11.14;92.62;102418.25;1675059;84;20977;-59
2020/12/06 04:33:08;;;;;;;12.75;5.60;;;;;;;-11.14;92.74;102419.93;1640826;85;21808;-57
2020/12/06 04:35:36;;;;;;;16.67;7.17;;;;;;;-11.14;92.92;102419.93;1674819;84;21040;-60
2020/12/06 04:38:04;;;;;;;30.95;13.45;;;;;;;-11.15;93.06;102415.31;1675922;84;21165;-58
2020/12/06 04:40:33;;;;;;;37.75;15.65;;;;;;;-11.16;93.22;102414.90;1674843;84;21236;-58
2020/12/06 04:43:01;;;;;;;58.85;23.85;;;;;;;-11.17;93.20;102414.48;1675207;84;21158;-59
2020/12/06 04:45:30;;;;;;;66.25;23.98;;;;;;;-11.20;93.25;102416.98;1674385;84;21455;-59
2020/12/06 04:48:06;;;;;;;60.35;22.17;;;;;;;-11.24;93.33;102419.05;1675802;84;21518;-57
2020/12/06 04:50:37;;;;;;;33.95;14.53;;;;;;;-11.25;93.46;102416.09;1676468;84;21126;-58
2020/12/06 04:53:05;;;;;;;21.65;9.05;;;;;;;-11.26;93.59;102419.45;1673834;84;21217;-59
2020/12/06 04:55:35;;;;;;;20.95;8.80;;;;;;;-11.27;93.70;102419.87;1676178;84;21008;-58
2020/12/06 04:58:04;;;;;;;15.88;6.30;;;;;;;-11.28;93.71;102418.61;1675574;84;21458;-59
2020/12/06 05:00:36;;;;;;;18.77;7.45;;;;;;;-11.28;93.87;102419.87;1676045;84;21193;-59
2020/12/06 05:03:08;;;;;;;13.35;5.85;;;;;;;-11.30;93.94;102412.71;1674087;84;21016;-58
2020/12/06 05:05:40;;;;;;;12.63;6.12;;;;;;;-11.31;94.05;102414.81;1674211;84;21175;-57
2020/12/06 05:08:11;;;;;;;10.65;4.92;;;;;;;-11.32;94.13;102424.47;1674609;84;21115;-58
2020/12/06 05:10:47;;;;;;;16.73;6.25;;;;;;;-11.33;94.28;102431.56;1639739;85;21464;-57
2020/12/06 05:13:16;;;;;;;12.00;4.70;;;;;;;-11.34;94.29;102438.70;1675172;84;21123;-57
2020/12/06 05:15:46;;;;;;;15.98;6.70;;;;;;;-11.34;94.43;102438.28;1674202;84;20993;-57
2020/12/06 05:18:14;;;;;;;14.35;5.45;;;;;;;-11.30;94.56;102445.44;1675538;84;21004;-58
2020/12/06 05:20:42;;;;;;;12.50;5.80;;;;;;;-11.20;94.64;102440.89;1675265;84;21140;-59
2020/12/06 05:23:12;;;;;;;11.03;5.35;;;;;;;-11.10;94.53;102443.90;1652953;85;21167;-56
2020/12/06 05:25:40;;;;;;;11.65;4.92;;;;;;;-11.00;94.30;102449.81;1654719;84;21073;-57
2020/12/06 05:28:09;;;;;;;11.35;4.87;;;;;;;-10.92;94.02;102451.11;1655665;85;21179;-57
2020/12/06 05:30:41;;;;;;;12.43;5.33;;;;;;;-10.77;93.89;102453.70;1676199;84;21111;-59
2020/12/06 05:33:10;;;;;;;13.62;6.50;;;;;;;-10.52;93.46;102441.21;1674657;85;21154;-57
2020/12/06 05:35:43;;;;;;;11.57;5.30;;;;;;;-10.24;92.54;102449.64;1675382;84;21155;-57
2020/12/06 05:38:12;;;;;;;10.70;5.17;;;;;;;-9.99;91.52;102452.64;1672511;84;21551;-56
2020/12/06 05:40:45;;;;;;;14.53;5.15;;;;;;;-9.70;90.78;102456.42;1650178;85;21064;-58
2020/12/06 05:43:13;;;;;;;17.07;6.37;;;;;;;-9.45;89.30;102464.84;1673355;84;21584;-57
2020/12/06 05:45:41;;;;;;;14.85;5.80;;;;;;;-9.27;88.01;102463.16;1634832;85;21617;-58
2020/12/06 05:48:09;;;;;;;12.28;5.55;;;;;;;-9.10;86.41;102460.16;1674064;84;21215;-58
2020/12/06 05:50:39;;;;;;;17.15;5.90;;;;;;;-8.95;85.16;102458.02;1639073;85;21213;-57
2020/12/06 05:53:07;;;;;;;12.03;5.37;;;;;;;-8.77;84.25;102458.39;1631258;84;21137;-56
2020/12/06 05:55:35;;;;;;;11.40;5.62;;;;;;;-8.60;83.13;102457.48;1676167;84;21162;-57
2020/12/06 05:58:03;;;;;;;13.35;5.70;;;;;;;-8.41;81.89;102459.51;1674816;84;21151;-56
2020/12/06 06:00:31;;;;;;;14.65;6.45;;;;;;;-8.22;80.69;102451.77;1640272;85;21233;-57
2020/12/06 06:02:59;;;;;;;12.98;6.35;;;;;;;-8.07;78.93;102455.45;1675533;84;20981;-56
2020/12/06 06:05:28;;;;;;;10.78;5.08;;;;;;;-7.99;77.83;102459.20;1674539;84;21185;-57
2020/12/06 06:07:59;;;;;;;12.63;6.50;;;;;;;-7.92;76.67;102449.03;1655869;85;21119;-58
2020/12/06 06:10:33;;;;;;;11.20;5.67;;;;;;;-7.82;75.80;102451.52;1673852;84;21449;-57
2020/12/06 06:13:03;;;;;;;11.80;6.40;;;;;;;-7.70;75.00;102459.00;1676801;84;21385;-57
2020/12/06 06:15:31;;;;;;;13.40;6.10;;;;;;;-7.59;73.97;102472.42;1673798;84;21166;-57
2020/12/06 06:17:59;;;;;;;13.62;6.08;;;;;;;-7.46;73.51;102451.61;1676234;84;21181;-58
2020/12/06 06:20:29;;;;;;;13.85;6.35;;;;;;;-7.29;72.80;102450.20;1655040;85;21138;-58
2020/12/06 06:22:57;;;;;;;14.35;6.60;;;;;;;-7.08;70.36;102442.40;1674686;84;21470;-57
2020/12/06 06:25:28;;;;;;;18.00;6.87;;;;;;;-7.08;70.36;102442.40;1673754;84;21344;-58
2020/12/06 06:27:57;;;;;;;15.23;6.87;;;;;;;-7.10;69.85;102449.16;1675875;84;21200;-57
2020/12/06 06:30:25;;;;;;;13.45;6.50;;;;;;;-7.06;69.40;102440.67;1653092;85;21083;-57
2020/12/06 06:32:54;;;;;;;16.97;8.18;;;;;;;-6.99;69.38;102444.82;1676225;84;21158;-57
2020/12/06 06:35:22;;;;;;;13.72;6.55;;;;;;;-6.78;68.92;102448.83;1633784;85;21111;-57
2020/12/06 06:37:50;;;;;;;15.58;7.28;;;;;;;-6.60;68.09;102452.81;1630850;85;21217;-57
2020/12/06 06:40:18;;;;;;;13.45;6.58;;;;;;;-6.48;66.98;102455.62;1656238;85;21217;-58
2020/12/06 06:42:46;;;;;;;15.65;6.53;;;;;;;-6.43;66.64;102441.20;1632538;85;21198;-58
2020/12/06 06:45:16;;;;;;;15.85;7.35;;;;;;;-6.32;65.96;102452.05;1675178;84;20991;-57
2020/12/06 06:47:44;;;;;;;16.07;6.12;;;;;;;-6.28;65.00;102435.91;1676272;84;21147;-56
2020/12/06 06:50:13;;;;;;;11.95;6.25;;;;;;;-6.21;64.76;102456.55;1673367;84;21206;-57
2020/12/06 06:52:42;;;;;;;12.85;6.55;;;;;;;-6.10;64.58;102441.56;1674367;84;21147;-57
2020/12/06 06:55:10;;;;;;;14.00;7.17;;;;;;;-5.99;63.77;102449.43;1674624;84;21655;-56
2020/12/06 06:57:41;;;;;;;13.65;6.80;;;;;;;-5.95;63.05;102441.34;1675961;84;21008;-56
2020/12/06 07:00:09;;;;;;;14.07;6.65;;;;;;;-5.96;62.72;102456.17;1675115;84;21075;-57
2020/12/06 07:02:41;;;;;;;12.00;6.10;;;;;;;-5.96;62.08;102461.25;1642117;85;21234;-57
2020/12/06 07:05:17;;;;;;;11.50;6.28;;;;;;;-6.07;61.89;102446.17;1674238;84;21206;-56
2020/12/06 07:07:52;;;;;;;14.60;7.60;;;;;;;-6.16;62.10;102451.39;1643971;85;20986;-57
2020/12/06 07:10:22;;;;;;;12.10;6.40;;;;;;;-6.14;62.23;102441.64;1674962;84;21169;-56
2020/12/06 07:12:57;;;;;;;57.13;28.27;;;;;;;-6.07;62.40;102441.09;1674944;84;21571;-56
2020/12/06 07:15:27;;;;;;;14.78;8.65;;;;;;;-5.90;62.29;102448.01;1675809;84;21273;-57
2020/12/06 07:17:56;;;;;;;11.83;6.50;;;;;;;-5.76;62.06;102443.96;1672499;84;21046;-57
2020/12/06 07:20:26;;;;;;;13.55;6.95;;;;;;;-5.64;61.60;102441.24;1675872;84;21155;-59
2020/12/06 07:22:56;;;;;;;14.07;6.85;;;;;;;-5.53;60.65;102445.28;1675865;84;20980;-57
2020/12/06 07:25:25;;;;;;;12.07;6.12;;;;;;;-5.52;59.99;102439.36;1675584;84;21151;-56
2020/12/06 07:27:53;;;;;;;14.05;6.75;;;;;;;-5.54;59.50;102451.23;1655445;84;21214;-60
2020/12/06 07:30:21;;;;;;;13.35;7.25;;;;;;;-5.55;59.91;102440.68;1675816;84;21052;-57
2020/12/06 07:32:50;;;;;;;17.95;9.03;;;;;;;-5.41;60.08;102441.28;1675118;84;21190;-58
2020/12/06 07:35:23;;;;;;;20.88;10.40;;;;;;;-5.28;59.26;102432.56;1675883;84;21230;-57
2020/12/06 07:37:48;;;;;;;13.90;8.18;;;;;;;-5.35;58.56;102446.24;1674646;84;21183;-58
2020/12/06 07:40:16;;;;;;;14.58;7.12;;;;;;;-5.54;58.49;102444.45;1633877;85;21472;-58
2020/12/06 07:42:44;;;;;;;14.73;7.72;;;;;;;-5.70;59.22;102450.66;1675056;84;21103;-57
2020/12/06 07:45:12;;;;;;;13.22;7.35;;;;;;;-5.80;59.36;102444.88;1676056;84;21138;-58
2020/12/06 07:47:40;;;;;;;12.40;7.50;;;;;;;-5.78;59.99;102436.81;1671676;84;21217;-58
2020/12/06 07:50:09;;;;;;;13.25;7.33;;;;;;;-5.74;59.47;102456.66;1675884;84;21210;-58
2020/12/06 07:52:40;;;;;;;13.03;6.78;;;;;;;-5.78;59.81;102442.33;1640330;85;21233;-58
2020/12/06 07:55:10;;;;;;;12.82;6.78;;;;;;;-5.70;59.91;102438.80;1675923;84;21154;-58
2020/12/06 07:57:54;;;;;;;13.13;5.92;;;;;;;-5.70;59.42;102432.88;1678900;84;20956;-58
2020/12/06 08:00:28;;;;;;;13.65;6.97;;;;;;;-5.68;59.51;102437.08;1679404;84;21130;-58
2020/12/06 08:03:00;;;;;;;16.70;7.65;;;;;;;-5.70;58.99;102433.71;1675499;84;21494;-57
2020/12/06 08:05:31;;;;;;;13.80;8.13;;;;;;;-5.90;59.35;102439.12;1671937;84;21271;-57
2020/12/06 08:08:18;;;;;;;10.00;5.20;;;;;;;-5.97;59.78;102437.56;1675038;84;20981;-57
2020/12/06 08:10:56;;;;;;;12.33;6.45;;;;;;;-5.99;60.08;102434.63;1678517;84;21064;-57
2020/12/06 08:13:25;;;;;;;40.08;22.73;;;;;;;-6.02;60.40;102430.86;1675169;84;21166;-57
2020/12/06 08:15:53;;;;;;;27.73;15.23;;;;;;;-5.98;60.67;102431.25;1676168;84;21106;-58
2020/12/06 08:22:00;;;;;;;14.23;7.70;;;;;;;-6.10;61.05;102435.22;1801735;77;22603;-56
2020/12/06 08:24:30;;;;;;;13.00;6.45;;;;;;;-6.10;61.05;102435.22;1766299;80;21638;-57
2020/12/06 08:27:00;;;;;;;17.92;7.30;;;;;;;-5.95;61.32;102441.34;1719077;81;21373;-57
2020/12/06 08:29:42;;;;;;;18.90;8.90;;;;;;;-5.75;61.09;102446.93;1720537;81;21083;-56
2020/12/06 08:32:12;;;;;;;17.32;8.73;;;;;;;-5.68;60.19;102442.16;1690018;84;21028;-56
2020/12/06 08:34:54;;;;;;;18.15;9.33;;;;;;;-5.75;59.61;102435.50;1720933;83;20990;-57
2020/12/06 08:37:23;;;;;;;18.40;8.83;;;;;;;-5.87;60.01;102436.53;1722761;83;20935;-57
2020/12/06 08:39:51;;;;;;;19.75;9.48;;;;;;;-5.87;60.50;102426.37;1719814;81;21626;-56
2020/12/06 08:42:20;;;;;;;17.15;8.83;;;;;;;-5.84;60.35;102427.17;1718773;82;21045;-56
2020/12/06 08:45:00;;;;;;;17.50;9.48;;;;;;;-5.87;60.20;102425.11;1714905;83;21037;-56
2020/12/06 08:47:46;;;;;;;17.25;7.75;;;;;;;-5.94;60.33;102428.64;1722001;83;20994;-57
2020/12/06 08:50:15;;;;;;;26.20;9.80;;;;;;;-6.01;60.44;102417.33;1715537;83;21013;-56
2020/12/06 08:52:44;;;;;;;14.98;7.53;;;;;;;-5.99;60.93;102405.43;1712654;83;21379;-57
2020/12/06 08:55:30;;;;;;;16.93;8.93;;;;;;;-5.91;60.75;102413.33;1713586;83;20970;-56
2020/12/06 08:57:59;;;;;;;14.73;7.62;;;;;;;-5.81;60.81;102405.55;1715549;83;21204;-57
2020/12/06 09:00:29;;;;;;;17.42;8.15;;;;;;;-5.70;60.45;102403.23;1712261;83;21182;-57
2020/12/06 09:02:59;;;;;;;25.40;9.48;;;;;;;-5.65;60.22;102406.52;1720013;83;21208;-56
2020/12/06 09:05:28;;;;;;;21.00;8.85;;;;;;;-5.74;59.57;102404.58;1715839;83;21255;-56
2020/12/06 09:07:57;;;;;;;18.35;9.40;;;;;;;-5.75;60.11;102408.83;1718417;83;21033;-57
2020/12/06 09:10:26;;;;;;;16.42;8.80;;;;;;;-5.65;59.43;102405.68;1717982;83;20966;-56
2020/12/06 09:12:54;;;;;;;13.95;8.08;;;;;;;-5.68;59.28;102400.68;1718155;83;21026;-58
2020/12/06 09:15:24;;;;;;;14.40;7.15;;;;;;;-5.73;59.00;102415.14;1718291;83;21539;-57
2020/12/06 09:17:53;;;;;;;19.27;9.30;;;;;;;-5.89;59.24;102407.77;1719256;83;22131;-59
2020/12/06 09:20:21;;;;;;;17.12;7.40;;;;;;;-5.95;59.72;102410.86;1715331;83;21062;-59
2020/12/06 09:22:49;;;;;;;17.67;8.53;;;;;;;-5.94;59.77;102417.64;1698368;83;21167;-58
2020/12/06 09:25:17;;;;;;;19.70;7.50;;;;;;;-5.92;60.02;102413.36;1743123;80;21066;-57
2020/12/06 09:27:45;;;;;;;18.07;8.98;;;;;;;-5.93;59.76;102418.04;1733794;81;20979;-57
2020/12/06 09:30:13;;;;;;;16.65;8.00;;;;;;;-5.93;59.85;102397.73;1735310;80;21673;-55
2020/12/06 09:32:42;;;;;;;14.43;7.78;;;;;;;-5.94;59.76;102401.14;1735822;80;21172;-58
2020/12/06 09:35:11;;;;;;;15.50;7.28;;;;;;;-5.95;60.33;102397.73;1740592;80;21061;-57
2020/12/06 09:37:39;;;;;;;13.98;6.70;;;;;;;-5.91;59.93;102407.38;1723099;82;21203;-57
2020/12/06 09:40:07;;;;;;;18.82;7.40;;;;;;;-5.95;60.03;102400.70;1737122;80;21138;-56
2020/12/06 09:42:37;;;;;;;17.65;7.45;;;;;;;-5.87;60.00;102400.14;1728577;82;21443;-56
2020/12/06 09:45:07;;;;;;;12.75;6.62;;;;;;;-5.82;59.68;102408.52;1746046;80;21099;-58
2020/12/06 09:47:35;;;;;;;18.30;8.03;;;;;;;-5.87;59.57;102395.06;1733880;82;21019;-55
2020/12/06 09:50:03;;;;;;;106.70;43.70;;;;;;;-5.85;59.51;102396.30;1739015;80;21221;-56
2020/12/06 09:52:32;;;;;;;15.63;7.90;;;;;;;-5.84;59.65;102414.48;1741208;80;21046;-56
2020/12/06 09:55:00;;;;;;;18.20;7.58;;;;;;;-5.80;59.90;102402.97;1741971;80;21281;-56
2020/12/06 09:57:28;;;;;;;16.23;6.53;;;;;;;-5.77;59.79;102402.92;1730586;81;21026;-58
2020/12/06 09:59:57;;;;;;;19.45;8.53;;;;;;;-5.69;59.57;102396.00;1742595;81;21093;-58
2020/12/06 10:02:25;;;;;;;12.03;6.25;;;;;;;-5.58;59.01;102392.45;1732682;80;21185;-56
2020/12/06 10:04:53;;;;;;;19.85;7.53;;;;;;;-5.55;58.73;102388.16;1737120;81;20967;-56
2020/12/06 10:07:24;;;;;;;12.82;7.20;;;;;;;-5.60;58.65;102398.84;1737196;80;21261;-57
2020/12/06 10:09:53;;;;;;;;;;;;;;;-5.66;58.80;102388.34;1742004;80;20983;-58
2020/12/06 10:12:21;;;;;;;16.85;6.70;;;;;;;-5.68;58.66;102395.59;1734574;81;20656;-56
2020/12/06 10:14:49;;;;;;;17.15;7.80;;;;;;;-5.76;58.75;102393.59;1736209;80;21556;-58
2020/12/06 10:17:18;;;;;;;14.45;7.12;;;;;;;-5.87;58.80;102400.98;1733641;80;21097;-56
2020/12/06 10:19:46;;;;;;;20.60;8.33;;;;;;;-5.97;59.18;102377.06;1735567;80;21999;-56
2020/12/06 10:22:17;;;;;;;17.70;6.78;;;;;;;-5.96;59.64;102390.16;1733006;80;21140;-56
2020/12/06 10:24:45;;;;;;;14.98;7.10;;;;;;;-5.91;59.87;102385.39;1733964;80;21379;-55
2020/12/06 10:27:13;;;;;;;20.62;7.20;;;;;;;-5.81;59.76;102378.44;1731689;81;21070;-57
2020/12/06 10:29:41;;;;;;;16.25;5.97;;;;;;;-5.80;59.49;102372.48;1695859;82;21546;-57
2020/12/06 10:32:09;;;;;;;15.68;7.17;;;;;;;-5.85;59.66;102360.30;1673499;83;22384;-56
2020/12/06 10:34:37;;;;;;;14.50;6.28;;;;;;;-5.86;59.92;102372.61;1677614;83;21222;-56
2020/12/06 10:37:06;;;;;;;17.82;6.03;;;;;;;-5.83;60.26;102364.94;1711235;83;21141;-58
2020/12/06 10:39:34;;;;;;;13.40;6.78;;;;;;;-5.78;59.87;102359.34;1686283;84;21494;-56
2020/12/06 10:42:03;;;;;;;13.62;6.50;;;;;;;-5.76;60.11;102363.95;1740819;80;21150;-57
2020/12/06 10:44:31;;;;;;;14.93;5.72;;;;;;;-5.72;60.07;102369.41;1732654;80;21364;-57
2020/12/06 10:46:59;;;;;;;12.23;5.83;;;;;;;-5.74;60.03;102362.67;1729276;80;21263;-56
2020/12/06 10:49:27;;;;;;;18.00;5.75;;;;;;;-5.78;60.49;102355.53;1720040;80;21126;-57
2020/12/06 10:51:55;;;;;;;14.87;6.28;;;;;;;-5.71;60.69;102360.08;1739276;80;21113;-58
2020/12/06 10:54:24;;;;;;;12.37;5.80;;;;;;;-5.70;60.37;102365.56;1700869;82;21110;-57
2020/12/06 10:56:52;;;;;;;12.18;5.78;;;;;;;-5.73;60.55;102349.09;1709444;82;21434;-56
2020/12/06 10:59:21;;;;;;;11.60;5.62;;;;;;;-5.77;60.60;102353.39;1680741;84;21207;-56
2020/12/06 11:01:49;;;;;;;9.70;5.28;;;;;;;-5.79;61.03;102354.30;1734385;80;21027;-55
2020/12/06 11:04:17;;;;;;;10.05;5.00;;;;;;;-5.72;61.23;102348.22;1732674;80;21184;-57
2020/12/06 11:06:46;;;;;;;10.32;4.90;;;;;;;-5.59;61.15;102351.41;1730755;80;21607;-56
2020/12/06 11:09:15;;;;;;;11.08;5.08;;;;;;;-5.55;60.62;102341.59;1735406;80;21335;-57
2020/12/06 11:11:48;;;;;;;17.30;6.30;;;;;;;-5.55;60.43;102360.20;1730201;81;21227;-56
2020/12/06 11:14:18;;;;;;;11.00;5.33;;;;;;;-5.53;60.55;102360.16;1715102;82;21443;-56
2020/12/06 11:16:51;;;;;;;12.98;5.35;;;;;;;-5.57;60.55;102350.92;1733069;81;20999;-56
2020/12/06 11:19:19;;;;;;;10.20;5.17;;;;;;;-5.64;60.96;102352.33;1741107;80;21165;-56
2020/12/06 11:21:53;;;;;;;13.28;5.72;;;;;;;-5.64;61.15;102351.05;1740392;80;21270;-58
2020/12/06 11:24:21;;;;;;;11.93;5.47;;;;;;;-5.57;61.35;102359.81;1730949;81;21632;-57
2020/12/06 11:26:50;;;;;;;10.95;5.12;;;;;;;-5.47;61.07;102358.79;1724453;81;21138;-57